sensor_id;sensor_type;location;lat;lon;timestamp;P1;durP1;ratioP1;P2;durP2;ratioP2
9898;SDS011;4988;49.238;6.698;2024-01-06T00:00:33;10.67;;;5.30;;
9898;SDS011;4988;49.238;6.698;2024-01-06T00:02:59;10.93;;;5.23;;
9898;SDS011;4988;49.238;6.698;2024-01-06T00:05:24;8.90;;;4.90;;
9898;SDS011;4988;49.238;6.698;2024-01-06T00:07:49;9.87;;;4.27;;
9898;SDS011;4988;49.238;6.698;2024-01-06T00:10:15;7.80;;;4.47;;
9898;SDS011;4988;49.238;6.698;2024-01-06T00:12:40;8.97;;;4.27;;
9898;SDS011;4988;49.238;6.698;2024-01-06T00:15:06;17.30;;;4.50;;
9898;SDS011;4988;49.238;6.698;2024-01-06T00:17:31;9.97;;;4.80;;
9898;SDS011;4988;49.238;6.698;2024-01-06T00:19:57;9.03;;;4.57;;
9898;SDS011;4988;49.238;6.698;2024-01-06T00:22:25;9.33;;;4.97;;
9898;SDS011;4988;49.238;6.698;2024-01-06T00:24:50;15.17;;;4.80;;
9898;SDS011;4988;49.238;6.698;2024-01-06T00:27:15;10.03;;;4.80;;
9898;SDS011;4988;49.238;6.698;2024-01-06T00:29:41;13.70;;;4.63;;
9898;SDS011;4988;49.238;6.698;2024-01-06T00:32:06;6.40;;;3.90;;
9898;SDS011;4988;49.238;6.698;2024-01-06T00:34:31;12.33;;;3.90;;
9898;SDS011;4988;49.238;6.698;2024-01-06T00:36:57;10.00;;;3.90;;
9898;SDS011;4988;49.238;6.698;2024-01-06T00:39:22;6.80;;;4.10;;
9898;SDS011;4988;49.238;6.698;2024-01-06T00:41:47;8.57;;;4.10;;
9898;SDS011;4988;49.238;6.698;2024-01-06T00:44:13;7.30;;;4.20;;
9898;SDS011;4988;49.238;6.698;2024-01-06T00:46:38;11.60;;;4.10;;
9898;SDS011;4988;49.238;6.698;2024-01-06T00:49:04;11.50;;;4.43;;
9898;SDS011;4988;49.238;6.698;2024-01-06T00:51:29;9.33;;;4.20;;
9898;SDS011;4988;49.238;6.698;2024-01-06T00:53:55;7.63;;;4.30;;
9898;SDS011;4988;49.238;6.698;2024-01-06T00:56:20;10.17;;;4.70;;
9898;SDS011;4988;49.238;6.698;2024-01-06T00:58:46;9.27;;;4.07;;
9898;SDS011;4988;49.238;6.698;2024-01-06T01:01:11;10.07;;;4.53;;
9898;SDS011;4988;49.238;6.698;2024-01-06T01:03:36;12.33;;;4.43;;
9898;SDS011;4988;49.238;6.698;2024-01-06T01:06:02;10.17;;;4.60;;
9898;SDS011;4988;49.238;6.698;2024-01-06T01:08:27;10.73;;;4.70;;
9898;SDS011;4988;49.238;6.698;2024-01-06T01:10:52;7.70;;;4.13;;
9898;SDS011;4988;49.238;6.698;2024-01-06T01:13:18;8.03;;;4.13;;
9898;SDS011;4988;49.238;6.698;2024-01-06T01:15:43;9.43;;;4.17;;
9898;SDS011;4988;49.238;6.698;2024-01-06T01:18:08;7.10;;;3.43;;
9898;SDS011;4988;49.238;6.698;2024-01-06T01:20:33;9.80;;;4.30;;
9898;SDS011;4988;49.238;6.698;2024-01-06T01:22:59;9.80;;;4.63;;
9898;SDS011;4988;49.238;6.698;2024-01-06T01:25:24;9.27;;;4.30;;
9898;SDS011;4988;49.238;6.698;2024-01-06T01:27:50;10.80;;;4.10;;
9898;SDS011;4988;49.238;6.698;2024-01-06T01:30:16;10.20;;;4.03;;
9898;SDS011;4988;49.238;6.698;2024-01-06T01:32:41;5.10;;;3.83;;
9898;SDS011;4988;49.238;6.698;2024-01-06T01:35:06;9.20;;;4.10;;
9898;SDS011;4988;49.238;6.698;2024-01-06T01:37:32;6.57;;;4.33;;
9898;SDS011;4988;49.238;6.698;2024-01-06T01:39:57;9.60;;;4.50;;
9898;SDS011;4988;49.238;6.698;2024-01-06T01:42:23;9.53;;;3.93;;
9898;SDS011;4988;49.238;6.698;2024-01-06T01:44:48;10.33;;;4.57;;
9898;SDS011;4988;49.238;6.698;2024-01-06T01:47:13;14.70;;;5.30;;
9898;SDS011;4988;49.238;6.698;2024-01-06T01:49:43;9.03;;;4.47;;
9898;SDS011;4988;49.238;6.698;2024-01-06T01:52:10;10.23;;;4.93;;
9898;SDS011;4988;49.238;6.698;2024-01-06T01:54:35;10.17;;;4.97;;
9898;SDS011;4988;49.238;6.698;2024-01-06T01:57:01;10.97;;;4.73;;
9898;SDS011;4988;49.238;6.698;2024-01-06T01:59:27;8.23;;;4.47;;
9898;SDS011;4988;49.238;6.698;2024-01-06T02:01:52;13.57;;;5.60;;
9898;SDS011;4988;49.238;6.698;2024-01-06T02:04:18;10.67;;;5.20;;
9898;SDS011;4988;49.238;6.698;2024-01-06T02:06:43;10.13;;;4.63;;
9898;SDS011;4988;49.238;6.698;2024-01-06T02:09:08;10.33;;;4.57;;
9898;SDS011;4988;49.238;6.698;2024-01-06T02:11:34;13.17;;;4.50;;
9898;SDS011;4988;49.238;6.698;2024-01-06T02:13:59;10.13;;;4.60;;
9898;SDS011;4988;49.238;6.698;2024-01-06T02:16:25;8.13;;;4.87;;
9898;SDS011;4988;49.238;6.698;2024-01-06T02:18:51;12.17;;;5.03;;
9898;SDS011;4988;49.238;6.698;2024-01-06T02:21:17;9.50;;;5.07;;
9898;SDS011;4988;49.238;6.698;2024-01-06T02:23:42;10.60;;;4.77;;
9898;SDS011;4988;49.238;6.698;2024-01-06T02:26:08;10.17;;;4.87;;
9898;SDS011;4988;49.238;6.698;2024-01-06T02:28:34;8.57;;;4.70;;
9898;SDS011;4988;49.238;6.698;2024-01-06T02:30:59;10.47;;;4.90;;
9898;SDS011;4988;49.238;6.698;2024-01-06T02:33:24;13.83;;;5.20;;
9898;SDS011;4988;49.238;6.698;2024-01-06T02:35:50;13.23;;;4.90;;
9898;SDS011;4988;49.238;6.698;2024-01-06T02:38:15;10.90;;;5.07;;
9898;SDS011;4988;49.238;6.698;2024-01-06T02:40:41;12.77;;;5.20;;
9898;SDS011;4988;49.238;6.698;2024-01-06T02:43:07;14.87;;;5.30;;
9898;SDS011;4988;49.238;6.698;2024-01-06T02:45:33;15.77;;;5.87;;
9898;SDS011;4988;49.238;6.698;2024-01-06T02:47:58;14.40;;;4.87;;
9898;SDS011;4988;49.238;6.698;2024-01-06T02:50:23;10.03;;;5.17;;
9898;SDS011;4988;49.238;6.698;2024-01-06T02:52:49;9.03;;;4.70;;
9898;SDS011;4988;49.238;6.698;2024-01-06T02:55:14;9.57;;;5.17;;
9898;SDS011;4988;49.238;6.698;2024-01-06T02:57:39;11.73;;;5.27;;
9898;SDS011;4988;49.238;6.698;2024-01-06T03:00:06;15.40;;;5.47;;
9898;SDS011;4988;49.238;6.698;2024-01-06T03:02:32;11.27;;;5.37;;
9898;SDS011;4988;49.238;6.698;2024-01-06T03:04:58;11.53;;;5.10;;
9898;SDS011;4988;49.238;6.698;2024-01-06T03:07:23;10.43;;;5.60;;
9898;SDS011;4988;49.238;6.698;2024-01-06T03:09:48;10.07;;;5.93;;
9898;SDS011;4988;49.238;6.698;2024-01-06T03:12:14;16.27;;;6.20;;
9898;SDS011;4988;49.238;6.698;2024-01-06T03:14:39;14.67;;;5.87;;
9898;SDS011;4988;49.238;6.698;2024-01-06T03:17:04;12.53;;;5.80;;
9898;SDS011;4988;49.238;6.698;2024-01-06T03:19:30;11.50;;;5.93;;
9898;SDS011;4988;49.238;6.698;2024-01-06T03:21:55;17.27;;;6.13;;
9898;SDS011;4988;49.238;6.698;2024-01-06T03:24:23;14.33;;;6.00;;
9898;SDS011;4988;49.238;6.698;2024-01-06T03:26:51;10.30;;;6.13;;
9898;SDS011;4988;49.238;6.698;2024-01-06T03:29:17;12.37;;;6.27;;
9898;SDS011;4988;49.238;6.698;2024-01-06T03:31:42;11.57;;;6.47;;
9898;SDS011;4988;49.238;6.698;2024-01-06T03:34:08;15.20;;;6.57;;
9898;SDS011;4988;49.238;6.698;2024-01-06T03:36:35;16.77;;;6.60;;
9898;SDS011;4988;49.238;6.698;2024-01-06T03:39:00;13.27;;;5.93;;
9898;SDS011;4988;49.238;6.698;2024-01-06T03:41:26;17.73;;;6.53;;
9898;SDS011;4988;49.238;6.698;2024-01-06T03:43:51;18.07;;;6.07;;
9898;SDS011;4988;49.238;6.698;2024-01-06T03:46:16;14.53;;;5.87;;
9898;SDS011;4988;49.238;6.698;2024-01-06T03:48:41;13.43;;;5.43;;
9898;SDS011;4988;49.238;6.698;2024-01-06T03:51:07;12.73;;;6.17;;
9898;SDS011;4988;49.238;6.698;2024-01-06T03:53:32;15.70;;;6.13;;
9898;SDS011;4988;49.238;6.698;2024-01-06T03:55:58;12.60;;;5.93;;
9898;SDS011;4988;49.238;6.698;2024-01-06T03:58:23;11.87;;;6.00;;
9898;SDS011;4988;49.238;6.698;2024-01-06T04:00:48;11.67;;;6.17;;
9898;SDS011;4988;49.238;6.698;2024-01-06T04:03:13;15.67;;;6.87;;
9898;SDS011;4988;49.238;6.698;2024-01-06T04:05:39;14.20;;;6.57;;
9898;SDS011;4988;49.238;6.698;2024-01-06T04:08:04;15.77;;;6.23;;
9898;SDS011;4988;49.238;6.698;2024-01-06T04:10:30;11.10;;;6.00;;
9898;SDS011;4988;49.238;6.698;2024-01-06T04:12:55;18.10;;;6.03;;
9898;SDS011;4988;49.238;6.698;2024-01-06T04:15:20;14.97;;;6.87;;
9898;SDS011;4988;49.238;6.698;2024-01-06T04:17:48;15.20;;;6.80;;
9898;SDS011;4988;49.238;6.698;2024-01-06T04:20:14;15.63;;;6.50;;
9898;SDS011;4988;49.238;6.698;2024-01-06T04:22:39;15.63;;;7.17;;
9898;SDS011;4988;49.238;6.698;2024-01-06T04:25:05;20.50;;;7.03;;
9898;SDS011;4988;49.238;6.698;2024-01-06T04:27:30;14.33;;;7.13;;
9898;SDS011;4988;49.238;6.698;2024-01-06T04:29:56;19.77;;;7.67;;
9898;SDS011;4988;49.238;6.698;2024-01-06T04:32:21;15.63;;;7.40;;
9898;SDS011;4988;49.238;6.698;2024-01-06T04:34:46;14.47;;;7.20;;
9898;SDS011;4988;49.238;6.698;2024-01-06T04:37:12;14.70;;;7.07;;
9898;SDS011;4988;49.238;6.698;2024-01-06T04:39:37;17.37;;;7.77;;
9898;SDS011;4988;49.238;6.698;2024-01-06T04:42:03;18.57;;;7.80;;
9898;SDS011;4988;49.238;6.698;2024-01-06T04:44:29;20.47;;;8.53;;
9898;SDS011;4988;49.238;6.698;2024-01-06T04:46:54;15.70;;;7.90;;
9898;SDS011;4988;49.238;6.698;2024-01-06T04:49:19;19.70;;;8.57;;
9898;SDS011;4988;49.238;6.698;2024-01-06T04:51:45;19.40;;;7.60;;
9898;SDS011;4988;49.238;6.698;2024-01-06T04:54:10;18.60;;;8.00;;
9898;SDS011;4988;49.238;6.698;2024-01-06T04:56:35;15.53;;;7.50;;
9898;SDS011;4988;49.238;6.698;2024-01-06T04:59:01;15.43;;;8.10;;
9898;SDS011;4988;49.238;6.698;2024-01-06T05:01:26;15.30;;;8.10;;
9898;SDS011;4988;49.238;6.698;2024-01-06T05:03:51;16.40;;;8.17;;
9898;SDS011;4988;49.238;6.698;2024-01-06T05:06:17;22.13;;;7.87;;
9898;SDS011;4988;49.238;6.698;2024-01-06T05:08:42;15.73;;;7.73;;
9898;SDS011;4988;49.238;6.698;2024-01-06T05:11:09;15.67;;;7.37;;
9898;SDS011;4988;49.238;6.698;2024-01-06T05:13:35;14.87;;;7.80;;
9898;SDS011;4988;49.238;6.698;2024-01-06T05:16:01;17.00;;;8.63;;
9898;SDS011;4988;49.238;6.698;2024-01-06T05:18:26;17.23;;;7.90;;
9898;SDS011;4988;49.238;6.698;2024-01-06T05:20:52;16.13;;;7.70;;
9898;SDS011;4988;49.238;6.698;2024-01-06T05:23:17;21.37;;;7.63;;
9898;SDS011;4988;49.238;6.698;2024-01-06T05:25:43;17.13;;;7.63;;
9898;SDS011;4988;49.238;6.698;2024-01-06T05:28:08;15.10;;;7.17;;
9898;SDS011;4988;49.238;6.698;2024-01-06T05:30:33;20.53;;;6.93;;
9898;SDS011;4988;49.238;6.698;2024-01-06T05:32:58;20.97;;;7.93;;
9898;SDS011;4988;49.238;6.698;2024-01-06T05:35:24;12.33;;;7.80;;
9898;SDS011;4988;49.238;6.698;2024-01-06T05:37:49;14.70;;;7.20;;
9898;SDS011;4988;49.238;6.698;2024-01-06T05:40:14;14.20;;;7.40;;
9898;SDS011;4988;49.238;6.698;2024-01-06T05:42:40;15.37;;;7.80;;
9898;SDS011;4988;49.238;6.698;2024-01-06T05:45:05;16.37;;;7.60;;
9898;SDS011;4988;49.238;6.698;2024-01-06T05:47:31;14.03;;;7.57;;
9898;SDS011;4988;49.238;6.698;2024-01-06T05:49:56;15.70;;;8.03;;
9898;SDS011;4988;49.238;6.698;2024-01-06T05:52:22;21.03;;;7.70;;
9898;SDS011;4988;49.238;6.698;2024-01-06T05:54:48;18.17;;;7.90;;
9898;SDS011;4988;49.238;6.698;2024-01-06T05:57:14;13.57;;;7.60;;
9898;SDS011;4988;49.238;6.698;2024-01-06T05:59:39;17.80;;;7.10;;
9898;SDS011;4988;49.238;6.698;2024-01-06T06:02:05;14.87;;;7.87;;
9898;SDS011;4988;49.238;6.698;2024-01-06T06:04:31;13.63;;;7.67;;
9898;SDS011;4988;49.238;6.698;2024-01-06T06:06:56;14.33;;;7.07;;
9898;SDS011;4988;49.238;6.698;2024-01-06T06:09:21;14.33;;;7.77;;
9898;SDS011;4988;49.238;6.698;2024-01-06T06:11:47;11.77;;;7.03;;
9898;SDS011;4988;49.238;6.698;2024-01-06T06:14:12;16.10;;;7.23;;
9898;SDS011;4988;49.238;6.698;2024-01-06T06:16:37;15.53;;;7.50;;
9898;SDS011;4988;49.238;6.698;2024-01-06T06:19:03;12.77;;;6.73;;
9898;SDS011;4988;49.238;6.698;2024-01-06T06:21:28;14.43;;;6.97;;
9898;SDS011;4988;49.238;6.698;2024-01-06T06:23:54;12.07;;;7.03;;
9898;SDS011;4988;49.238;6.698;2024-01-06T06:26:19;12.97;;;6.50;;
9898;SDS011;4988;49.238;6.698;2024-01-06T06:28:44;11.77;;;6.70;;
9898;SDS011;4988;49.238;6.698;2024-01-06T06:31:10;14.50;;;7.00;;
9898;SDS011;4988;49.238;6.698;2024-01-06T06:33:35;13.40;;;7.33;;
9898;SDS011;4988;49.238;6.698;2024-01-06T06:36:00;15.90;;;7.43;;
9898;SDS011;4988;49.238;6.698;2024-01-06T06:38:29;14.70;;;7.17;;
9898;SDS011;4988;49.238;6.698;2024-01-06T06:40:54;13.20;;;6.60;;
9898;SDS011;4988;49.238;6.698;2024-01-06T06:43:20;14.30;;;7.17;;
9898;SDS011;4988;49.238;6.698;2024-01-06T06:45:45;14.27;;;7.03;;
9898;SDS011;4988;49.238;6.698;2024-01-06T06:48:11;14.07;;;7.67;;
9898;SDS011;4988;49.238;6.698;2024-01-06T06:50:36;18.37;;;7.67;;
9898;SDS011;4988;49.238;6.698;2024-01-06T06:53:01;16.47;;;7.93;;
9898;SDS011;4988;49.238;6.698;2024-01-06T06:55:27;14.30;;;7.00;;
9898;SDS011;4988;49.238;6.698;2024-01-06T06:57:52;13.37;;;6.97;;
9898;SDS011;4988;49.238;6.698;2024-01-06T07:00:18;10.70;;;6.50;;
9898;SDS011;4988;49.238;6.698;2024-01-06T07:02:44;12.30;;;6.80;;
9898;SDS011;4988;49.238;6.698;2024-01-06T07:05:09;13.67;;;6.73;;
9898;SDS011;4988;49.238;6.698;2024-01-06T07:07:35;13.23;;;6.63;;
9898;SDS011;4988;49.238;6.698;2024-01-06T07:10:04;17.40;;;7.00;;
9898;SDS011;4988;49.238;6.698;2024-01-06T07:12:30;12.37;;;6.73;;
9898;SDS011;4988;49.238;6.698;2024-01-06T07:14:56;13.40;;;6.60;;
9898;SDS011;4988;49.238;6.698;2024-01-06T07:17:22;12.30;;;6.53;;
9898;SDS011;4988;49.238;6.698;2024-01-06T07:19:47;11.43;;;6.47;;
9898;SDS011;4988;49.238;6.698;2024-01-06T07:22:13;12.67;;;7.10;;
9898;SDS011;4988;49.238;6.698;2024-01-06T07:24:40;12.93;;;6.90;;
9898;SDS011;4988;49.238;6.698;2024-01-06T07:27:05;14.33;;;7.10;;
9898;SDS011;4988;49.238;6.698;2024-01-06T07:29:30;13.43;;;6.70;;
9898;SDS011;4988;49.238;6.698;2024-01-06T07:31:56;19.63;;;7.47;;
9898;SDS011;4988;49.238;6.698;2024-01-06T07:34:22;11.67;;;6.77;;
9898;SDS011;4988;49.238;6.698;2024-01-06T07:36:47;13.97;;;7.30;;
9898;SDS011;4988;49.238;6.698;2024-01-06T07:39:12;14.03;;;6.87;;
9898;SDS011;4988;49.238;6.698;2024-01-06T07:41:38;12.83;;;7.40;;
9898;SDS011;4988;49.238;6.698;2024-01-06T07:44:03;13.67;;;7.43;;
9898;SDS011;4988;49.238;6.698;2024-01-06T07:46:28;13.07;;;7.83;;
9898;SDS011;4988;49.238;6.698;2024-01-06T07:48:54;12.60;;;6.80;;
9898;SDS011;4988;49.238;6.698;2024-01-06T07:51:20;14.83;;;7.20;;
9898;SDS011;4988;49.238;6.698;2024-01-06T07:53:45;15.43;;;7.20;;
9898;SDS011;4988;49.238;6.698;2024-01-06T07:56:11;13.00;;;6.83;;
9898;SDS011;4988;49.238;6.698;2024-01-06T07:58:36;16.63;;;7.37;;
9898;SDS011;4988;49.238;6.698;2024-01-06T08:01:01;12.10;;;6.80;;
9898;SDS011;4988;49.238;6.698;2024-01-06T08:03:27;14.90;;;6.97;;
9898;SDS011;4988;49.238;6.698;2024-01-06T08:05:52;14.07;;;6.63;;
9898;SDS011;4988;49.238;6.698;2024-01-06T08:08:17;14.13;;;7.20;;
9898;SDS011;4988;49.238;6.698;2024-01-06T08:10:43;12.67;;;7.50;;
9898;SDS011;4988;49.238;6.698;2024-01-06T08:13:09;12.93;;;6.93;;
9898;SDS011;4988;49.238;6.698;2024-01-06T08:15:34;16.70;;;7.10;;
9898;SDS011;4988;49.238;6.698;2024-01-06T08:17:59;13.47;;;6.43;;
9898;SDS011;4988;49.238;6.698;2024-01-06T08:20:25;15.23;;;6.80;;
9898;SDS011;4988;49.238;6.698;2024-01-06T08:22:50;12.80;;;6.97;;
9898;SDS011;4988;49.238;6.698;2024-01-06T08:25:15;11.53;;;6.63;;
9898;SDS011;4988;49.238;6.698;2024-01-06T08:27:42;15.07;;;6.50;;
9898;SDS011;4988;49.238;6.698;2024-01-06T08:30:10;12.60;;;6.87;;
9898;SDS011;4988;49.238;6.698;2024-01-06T08:32:36;13.90;;;7.40;;
9898;SDS011;4988;49.238;6.698;2024-01-06T08:35:01;12.00;;;6.87;;
9898;SDS011;4988;49.238;6.698;2024-01-06T08:37:27;15.20;;;7.17;;
9898;SDS011;4988;49.238;6.698;2024-01-06T08:39:52;18.90;;;7.70;;
9898;SDS011;4988;49.238;6.698;2024-01-06T08:42:18;15.53;;;6.60;;
9898;SDS011;4988;49.238;6.698;2024-01-06T08:44:43;11.17;;;6.90;;
9898;SDS011;4988;49.238;6.698;2024-01-06T08:47:09;15.70;;;7.00;;
9898;SDS011;4988;49.238;6.698;2024-01-06T08:49:34;11.73;;;7.13;;
9898;SDS011;4988;49.238;6.698;2024-01-06T08:52:00;13.77;;;7.30;;
9898;SDS011;4988;49.238;6.698;2024-01-06T08:54:25;14.83;;;6.97;;
9898;SDS011;4988;49.238;6.698;2024-01-06T08:56:50;14.80;;;6.90;;
9898;SDS011;4988;49.238;6.698;2024-01-06T08:59:16;13.73;;;6.70;;
9898;SDS011;4988;49.238;6.698;2024-01-06T09:01:41;16.43;;;7.93;;
9898;SDS011;4988;49.238;6.698;2024-01-06T09:04:07;17.97;;;7.60;;
9898;SDS011;4988;49.238;6.698;2024-01-06T09:06:32;14.10;;;7.00;;
9898;SDS011;4988;49.238;6.698;2024-01-06T09:08:57;15.73;;;6.27;;
9898;SDS011;4988;49.238;6.698;2024-01-06T09:11:23;13.07;;;7.17;;
9898;SDS011;4988;49.238;6.698;2024-01-06T09:13:48;12.00;;;6.90;;
9898;SDS011;4988;49.238;6.698;2024-01-06T09:16:14;12.57;;;7.27;;
9898;SDS011;4988;49.238;6.698;2024-01-06T09:18:39;15.87;;;7.73;;
9898;SDS011;4988;49.238;6.698;2024-01-06T09:21:05;16.73;;;7.27;;
9898;SDS011;4988;49.238;6.698;2024-01-06T09:23:30;14.00;;;7.20;;
9898;SDS011;4988;49.238;6.698;2024-01-06T09:25:56;10.83;;;6.40;;
9898;SDS011;4988;49.238;6.698;2024-01-06T09:28:22;12.50;;;6.93;;
9898;SDS011;4988;49.238;6.698;2024-01-06T09:30:48;11.77;;;6.93;;
9898;SDS011;4988;49.238;6.698;2024-01-06T09:33:13;10.90;;;6.40;;
9898;SDS011;4988;49.238;6.698;2024-01-06T09:35:41;12.30;;;6.77;;
9898;SDS011;4988;49.238;6.698;2024-01-06T09:38:06;13.07;;;6.87;;
9898;SDS011;4988;49.238;6.698;2024-01-06T09:40:32;10.70;;;6.53;;
9898;SDS011;4988;49.238;6.698;2024-01-06T09:43:00;12.77;;;6.57;;
9898;SDS011;4988;49.238;6.698;2024-01-06T09:45:26;12.67;;;7.00;;
9898;SDS011;4988;49.238;6.698;2024-01-06T09:47:53;9.90;;;6.30;;
9898;SDS011;4988;49.238;6.698;2024-01-06T09:50:20;12.47;;;6.53;;
9898;SDS011;4988;49.238;6.698;2024-01-06T09:52:47;10.27;;;6.10;;
9898;SDS011;4988;49.238;6.698;2024-01-06T09:55:29;12.77;;;7.20;;
9898;SDS011;4988;49.238;6.698;2024-01-06T09:57:54;12.93;;;7.00;;
9898;SDS011;4988;49.238;6.698;2024-01-06T10:00:20;15.20;;;6.60;;
9898;SDS011;4988;49.238;6.698;2024-01-06T10:02:47;12.90;;;6.40;;
9898;SDS011;4988;49.238;6.698;2024-01-06T10:05:14;11.67;;;6.47;;
9898;SDS011;4988;49.238;6.698;2024-01-06T10:07:41;13.90;;;6.20;;
9898;SDS011;4988;49.238;6.698;2024-01-06T10:10:08;15.67;;;6.30;;
9898;SDS011;4988;49.238;6.698;2024-01-06T10:12:36;13.57;;;6.33;;
9898;SDS011;4988;49.238;6.698;2024-01-06T10:15:02;9.87;;;5.63;;
9898;SDS011;4988;49.238;6.698;2024-01-06T10:17:28;11.50;;;6.30;;
9898;SDS011;4988;49.238;6.698;2024-01-06T10:19:53;10.87;;;5.93;;
9898;SDS011;4988;49.238;6.698;2024-01-06T10:22:19;11.53;;;6.33;;
9898;SDS011;4988;49.238;6.698;2024-01-06T10:24:45;29.73;;;11.43;;
9898;SDS011;4988;49.238;6.698;2024-01-06T10:27:11;11.13;;;5.70;;
9898;SDS011;4988;49.238;6.698;2024-01-06T10:29:36;9.43;;;5.37;;
9898;SDS011;4988;49.238;6.698;2024-01-06T10:32:02;9.93;;;6.07;;
9898;SDS011;4988;49.238;6.698;2024-01-06T10:34:28;9.17;;;5.30;;
9898;SDS011;4988;49.238;6.698;2024-01-06T10:36:54;12.93;;;6.77;;
9898;SDS011;4988;49.238;6.698;2024-01-06T10:39:19;9.33;;;6.17;;
9898;SDS011;4988;49.238;6.698;2024-01-06T10:41:46;8.90;;;5.33;;
9898;SDS011;4988;49.238;6.698;2024-01-06T10:44:13;10.57;;;5.20;;
9898;SDS011;4988;49.238;6.698;2024-01-06T10:46:39;8.90;;;5.20;;
9898;SDS011;4988;49.238;6.698;2024-01-06T10:49:06;11.97;;;5.47;;
9898;SDS011;4988;49.238;6.698;2024-01-06T10:51:36;9.43;;;5.10;;
9898;SDS011;4988;49.238;6.698;2024-01-06T10:54:02;8.90;;;4.97;;
9898;SDS011;4988;49.238;6.698;2024-01-06T10:56:28;11.53;;;5.63;;
9898;SDS011;4988;49.238;6.698;2024-01-06T10:58:54;9.00;;;5.60;;
9898;SDS011;4988;49.238;6.698;2024-01-06T11:01:22;9.03;;;5.37;;
9898;SDS011;4988;49.238;6.698;2024-01-06T11:03:49;7.23;;;5.17;;
9898;SDS011;4988;49.238;6.698;2024-01-06T11:06:15;9.90;;;5.20;;
9898;SDS011;4988;49.238;6.698;2024-01-06T11:09:17;9.30;;;5.40;;
9898;SDS011;4988;49.238;6.698;2024-01-06T11:11:36;7.27;;;5.07;;
9898;SDS011;4988;49.238;6.698;2024-01-06T11:16:47;12.97;;;5.77;;
9898;SDS011;4988;49.238;6.698;2024-01-06T11:24:56;9.97;;;5.20;;
9898;SDS011;4988;49.238;6.698;2024-01-06T11:27:28;9.27;;;5.07;;
9898;SDS011;4988;49.238;6.698;2024-01-06T11:29:59;9.20;;;5.13;;
9898;SDS011;4988;49.238;6.698;2024-01-06T11:32:35;7.07;;;5.47;;
9898;SDS011;4988;49.238;6.698;2024-01-06T11:37:35;9.30;;;5.20;;
9898;SDS011;4988;49.238;6.698;2024-01-06T11:40:16;7.97;;;4.87;;
9898;SDS011;4988;49.238;6.698;2024-01-06T11:42:47;9.17;;;4.97;;
9898;SDS011;4988;49.238;6.698;2024-01-06T11:45:13;7.73;;;5.37;;
9898;SDS011;4988;49.238;6.698;2024-01-06T11:47:40;6.50;;;4.77;;
9898;SDS011;4988;49.238;6.698;2024-01-06T11:50:12;7.37;;;4.40;;
9898;SDS011;4988;49.238;6.698;2024-01-06T11:52:38;5.53;;;4.00;;
9898;SDS011;4988;49.238;6.698;2024-01-06T11:55:04;8.43;;;4.80;;
9898;SDS011;4988;49.238;6.698;2024-01-06T11:57:30;5.60;;;4.40;;
9898;SDS011;4988;49.238;6.698;2024-01-06T11:59:55;6.67;;;4.37;;
9898;SDS011;4988;49.238;6.698;2024-01-06T12:02:21;5.40;;;4.20;;
9898;SDS011;4988;49.238;6.698;2024-01-06T12:04:50;6.53;;;3.67;;
9898;SDS011;4988;49.238;6.698;2024-01-06T12:07:17;7.47;;;4.23;;
9898;SDS011;4988;49.238;6.698;2024-01-06T12:09:44;5.13;;;3.97;;
9898;SDS011;4988;49.238;6.698;2024-01-06T12:12:10;6.20;;;4.50;;
9898;SDS011;4988;49.238;6.698;2024-01-06T12:14:36;5.83;;;4.47;;
9898;SDS011;4988;49.238;6.698;2024-01-06T12:17:01;6.80;;;4.50;;
9898;SDS011;4988;49.238;6.698;2024-01-06T12:19:30;5.90;;;3.80;;
9898;SDS011;4988;49.238;6.698;2024-01-06T12:21:57;6.57;;;3.90;;
9898;SDS011;4988;49.238;6.698;2024-01-06T12:24:23;8.83;;;4.20;;
9898;SDS011;4988;49.238;6.698;2024-01-06T12:26:48;7.60;;;4.17;;
9898;SDS011;4988;49.238;6.698;2024-01-06T12:29:15;6.33;;;4.27;;
9898;SDS011;4988;49.238;6.698;2024-01-06T12:31:42;6.70;;;3.93;;
9898;SDS011;4988;49.238;6.698;2024-01-06T12:34:09;7.30;;;4.00;;
9898;SDS011;4988;49.238;6.698;2024-01-06T12:36:35;8.77;;;4.27;;
9898;SDS011;4988;49.238;6.698;2024-01-06T12:39:02;4.47;;;3.43;;
9898;SDS011;4988;49.238;6.698;2024-01-06T12:41:28;5.70;;;3.93;;
9898;SDS011;4988;49.238;6.698;2024-01-06T12:43:53;4.80;;;4.03;;
9898;SDS011;4988;49.238;6.698;2024-01-06T12:46:19;6.30;;;3.80;;
9898;SDS011;4988;49.238;6.698;2024-01-06T12:48:44;5.50;;;4.00;;
9898;SDS011;4988;49.238;6.698;2024-01-06T12:51:09;8.97;;;4.00;;
9898;SDS011;4988;49.238;6.698;2024-01-06T12:53:35;4.43;;;3.80;;
9898;SDS011;4988;49.238;6.698;2024-01-06T12:56:00;6.50;;;4.33;;
9898;SDS011;4988;49.238;6.698;2024-01-06T12:58:27;7.13;;;4.10;;
9898;SDS011;4988;49.238;6.698;2024-01-06T13:00:53;4.47;;;3.77;;
9898;SDS011;4988;49.238;6.698;2024-01-06T13:03:18;4.70;;;3.77;;
9898;SDS011;4988;49.238;6.698;2024-01-06T13:05:44;7.97;;;5.30;;
9898;SDS011;4988;49.238;6.698;2024-01-06T13:08:10;7.27;;;4.43;;
9898;SDS011;4988;49.238;6.698;2024-01-06T13:10:35;9.80;;;5.00;;
9898;SDS011;4988;49.238;6.698;2024-01-06T13:13:01;8.60;;;4.93;;
9898;SDS011;4988;49.238;6.698;2024-01-06T13:15:27;7.67;;;4.03;;
9898;SDS011;4988;49.238;6.698;2024-01-06T13:17:52;8.37;;;4.23;;
9898;SDS011;4988;49.238;6.698;2024-01-06T13:20:18;7.27;;;4.10;;
9898;SDS011;4988;49.238;6.698;2024-01-06T13:22:43;7.30;;;4.13;;
9898;SDS011;4988;49.238;6.698;2024-01-06T13:25:08;7.13;;;4.17;;
9898;SDS011;4988;49.238;6.698;2024-01-06T13:27:34;6.43;;;3.80;;
9898;SDS011;4988;49.238;6.698;2024-01-06T13:29:59;5.77;;;4.27;;
9898;SDS011;4988;49.238;6.698;2024-01-06T13:32:25;4.73;;;3.70;;
9898;SDS011;4988;49.238;6.698;2024-01-06T13:34:52;5.37;;;3.77;;
9898;SDS011;4988;49.238;6.698;2024-01-06T13:37:21;6.77;;;3.67;;
9898;SDS011;4988;49.238;6.698;2024-01-06T13:39:49;5.47;;;3.60;;
9898;SDS011;4988;49.238;6.698;2024-01-06T13:42:14;11.53;;;5.50;;
9898;SDS011;4988;49.238;6.698;2024-01-06T13:44:39;5.67;;;4.33;;
9898;SDS011;4988;49.238;6.698;2024-01-06T13:47:05;5.40;;;3.90;;
9898;SDS011;4988;49.238;6.698;2024-01-06T13:49:30;5.73;;;3.93;;
9898;SDS011;4988;49.238;6.698;2024-01-06T13:51:56;8.97;;;4.17;;
9898;SDS011;4988;49.238;6.698;2024-01-06T13:54:21;5.47;;;3.60;;
9898;SDS011;4988;49.238;6.698;2024-01-06T13:56:47;7.27;;;4.40;;
9898;SDS011;4988;49.238;6.698;2024-01-06T13:59:12;7.90;;;4.90;;
9898;SDS011;4988;49.238;6.698;2024-01-06T14:01:38;6.13;;;4.10;;
9898;SDS011;4988;49.238;6.698;2024-01-06T14:04:03;7.47;;;4.13;;
9898;SDS011;4988;49.238;6.698;2024-01-06T14:06:30;8.33;;;4.13;;
9898;SDS011;4988;49.238;6.698;2024-01-06T14:08:56;6.93;;;4.00;;
9898;SDS011;4988;49.238;6.698;2024-01-06T14:11:22;4.50;;;3.70;;
9898;SDS011;4988;49.238;6.698;2024-01-06T14:13:48;6.53;;;3.87;;
9898;SDS011;4988;49.238;6.698;2024-01-06T14:16:17;8.13;;;4.80;;
9898;SDS011;4988;49.238;6.698;2024-01-06T14:18:43;6.20;;;3.57;;
9898;SDS011;4988;49.238;6.698;2024-01-06T14:21:09;7.40;;;4.17;;
9898;SDS011;4988;49.238;6.698;2024-01-06T14:23:35;9.47;;;5.20;;
9898;SDS011;4988;49.238;6.698;2024-01-06T14:26:00;5.20;;;3.90;;
9898;SDS011;4988;49.238;6.698;2024-01-06T14:28:26;6.10;;;4.20;;
9898;SDS011;4988;49.238;6.698;2024-01-06T14:30:51;5.13;;;3.40;;
9898;SDS011;4988;49.238;6.698;2024-01-06T14:33:17;5.47;;;4.43;;
9898;SDS011;4988;49.238;6.698;2024-01-06T14:35:43;5.67;;;3.70;;
9898;SDS011;4988;49.238;6.698;2024-01-06T14:38:10;5.57;;;4.00;;
9898;SDS011;4988;49.238;6.698;2024-01-06T14:40:36;4.43;;;3.70;;
9898;SDS011;4988;49.238;6.698;2024-01-06T14:43:01;6.97;;;4.27;;
9898;SDS011;4988;49.238;6.698;2024-01-06T14:45:28;5.77;;;4.33;;
9898;SDS011;4988;49.238;6.698;2024-01-06T14:47:54;5.90;;;4.43;;
9898;SDS011;4988;49.238;6.698;2024-01-06T14:50:19;5.00;;;3.80;;
9898;SDS011;4988;49.238;6.698;2024-01-06T14:52:45;7.10;;;4.07;;
9898;SDS011;4988;49.238;6.698;2024-01-06T14:55:10;7.07;;;4.87;;
9898;SDS011;4988;49.238;6.698;2024-01-06T14:57:36;6.47;;;4.70;;
9898;SDS011;4988;49.238;6.698;2024-01-06T15:00:01;11.67;;;6.27;;
9898;SDS011;4988;49.238;6.698;2024-01-06T15:02:26;9.17;;;5.23;;
9898;SDS011;4988;49.238;6.698;2024-01-06T15:04:52;8.77;;;6.13;;
9898;SDS011;4988;49.238;6.698;2024-01-06T15:07:18;6.17;;;4.67;;
9898;SDS011;4988;49.238;6.698;2024-01-06T15:09:43;6.60;;;4.60;;